UAL6517 KLAX-CYYJ
Flight info
| Callsign | UAL6517 |
|---|---|
| Flight time | N/A |
| Altitude | 36000 |
| Route | LADYJ4 CSTRO DCT FMG J5 SEA Q902 DISCO DISCO5 |
| Aircraft | B739/M-SDE2E3FGHIRWXY/LB1 |
Departure
| Time | 2026-04-26 16:56 |
|---|---|
| Airport | Los Angeles International Airport (KLAX) |
Arrival
| Time | N/A |
|---|---|
| Airport | Victoria International Airport (CYYJ) |
| Time | Latitude | Longitude | Altitude | Speed | Heading |
|---|---|---|---|---|---|
| 2026-04-26 16:41 | 33.94461 | -118.41127 | 92 ft | 0 kts | 84° |
| 2026-04-26 16:46 | 33.94459 | -118.41151 | 90 ft | 3 kts | 84° |
| 2026-04-26 16:46 | 33.94457 | -118.41175 | 93 ft | 3 kts | 84° |
| 2026-04-26 16:46 | 33.94455 | -118.41200 | 92 ft | 3 kts | 84° |
| 2026-04-26 16:47 | 33.94453 | -118.41225 | 92 ft | 3 kts | 74° |
| 2026-04-26 16:47 | 33.94441 | -118.41242 | 92 ft | 3 kts | 21° |
| 2026-04-26 16:47 | 33.94424 | -118.41244 | 91 ft | 0 kts | 353° |
| 2026-04-26 16:50 | 33.94425 | -118.41245 | 91 ft | 1 kts | 353° |
| 2026-04-26 16:51 | 33.94459 | -118.41251 | 93 ft | 7 kts | 353° |
| 2026-04-26 16:51 | 33.94511 | -118.41258 | 93 ft | 6 kts | 353° |
| 2026-04-26 16:51 | 33.94555 | -118.41264 | 92 ft | 6 kts | 353° |
| 2026-04-26 16:51 | 33.94605 | -118.41272 | 93 ft | 10 kts | 353° |
| 2026-04-26 16:52 | 33.94679 | -118.41283 | 93 ft | 8 kts | 352° |
| 2026-04-26 16:52 | 33.94721 | -118.41290 | 92 ft | 11 kts | 353° |
| 2026-04-26 16:52 | 33.94802 | -118.41189 | 97 ft | 15 kts | 83° |
| 2026-04-26 16:52 | 33.94816 | -118.41063 | 95 ft | 15 kts | 83° |
| 2026-04-26 16:53 | 33.94828 | -118.40944 | 94 ft | 14 kts | 83° |
| 2026-04-26 16:53 | 33.94840 | -118.40831 | 93 ft | 13 kts | 82° |
| 2026-04-26 16:53 | 33.94851 | -118.40721 | 93 ft | 14 kts | 83° |
| 2026-04-26 16:53 | 33.94864 | -118.40601 | 96 ft | 15 kts | 83° |
| 2026-04-26 16:54 | 33.94878 | -118.40469 | 93 ft | 17 kts | 83° |
| 2026-04-26 16:54 | 33.94891 | -118.40329 | 94 ft | 17 kts | 83° |
| 2026-04-26 16:54 | 33.94905 | -118.40195 | 95 ft | 16 kts | 83° |
| 2026-04-26 16:54 | 33.94918 | -118.40069 | 93 ft | 15 kts | 83° |
| 2026-04-26 16:55 | 33.94935 | -118.39952 | 93 ft | 13 kts | 67° |
| 2026-04-26 16:55 | 33.95008 | -118.39916 | 93 ft | 11 kts | 341° |
| 2026-04-26 16:55 | 33.95035 | -118.40026 | 94 ft | 31 kts | 264° |
| 2026-04-26 16:55 | 33.94981 | -118.40547 | 95 ft | 93 kts | 263° |
| 2026-04-26 16:56 | 33.94752 | -118.42851 | 259 ft | 164 kts | 264° |
| 2026-04-26 16:56 | 33.94641 | -118.44192 | 769 ft | 170 kts | 264° |
| 2026-04-26 16:56 | 33.94493 | -118.45699 | 987 ft | 192 kts | 262° |
| 2026-04-26 16:57 | 33.94320 | -118.47383 | 1135 ft | 214 kts | 266° |
| 2026-04-26 16:57 | 33.94251 | -118.49228 | 1344 ft | 231 kts | 267° |
| 2026-04-26 16:57 | 33.94048 | -118.53361 | 2042 ft | 258 kts | 265° |
| 2026-04-26 16:58 | 33.93872 | -118.55479 | 2982 ft | 247 kts | 264° |
| 2026-04-26 16:58 | 33.93765 | -118.56816 | 3637 ft | 242 kts | 265° |
| 2026-04-26 16:58 | 33.93491 | -118.61612 | 5296 ft | 248 kts | 280° |
| 2026-04-26 16:59 | 33.94162 | -118.63501 | 5920 ft | 254 kts | 305° |
| 2026-04-26 16:59 | 33.96987 | -118.66135 | 7286 ft | 260 kts | 326° |
| 2026-04-26 17:00 | 34.00403 | -118.67703 | 8539 ft | 276 kts | 354° |
| 2026-04-26 17:00 | 34.04310 | -118.67473 | 9853 ft | 285 kts | 359° |
| 2026-04-26 17:00 | 34.06296 | -118.67319 | 10449 ft | 288 kts | 358° |
| 2026-04-26 17:01 | 34.08297 | -118.67140 | 11133 ft | 290 kts | 2° |
| 2026-04-26 17:01 | 34.10298 | -118.66712 | 11808 ft | 293 kts | 6° |
| 2026-04-26 17:01 | 34.12303 | -118.66195 | 12345 ft | 302 kts | 6° |
| 2026-04-26 17:01 | 34.14448 | -118.65645 | 12477 ft | 323 kts | 6° |
| 2026-04-26 17:02 | 34.16710 | -118.65088 | 12646 ft | 341 kts | 6° |
| 2026-04-26 17:02 | 34.19082 | -118.64518 | 12969 ft | 353 kts | 6° |
| 2026-04-26 17:02 | 34.21482 | -118.63945 | 13569 ft | 356 kts | 6° |
| 2026-04-26 17:02 | 34.23928 | -118.63523 | 14215 ft | 354 kts | 358° |
| 2026-04-26 17:03 | 34.26380 | -118.63636 | 14759 ft | 353 kts | 347° |
| 2026-04-26 17:03 | 34.28809 | -118.64173 | 15322 ft | 356 kts | 345° |
| 2026-04-26 17:03 | 34.31259 | -118.64764 | 15887 ft | 361 kts | 345° |
| 2026-04-26 17:03 | 34.33731 | -118.65358 | 16472 ft | 364 kts | 345° |
| 2026-04-26 17:04 | 34.36237 | -118.65946 | 17031 ft | 369 kts | 345° |
| 2026-04-26 17:04 | 34.38773 | -118.66532 | 17573 ft | 373 kts | 345° |
| 2026-04-26 17:04 | 34.41337 | -118.67120 | 18114 ft | 377 kts | 346° |
| 2026-04-26 17:04 | 34.43929 | -118.67693 | 18658 ft | 380 kts | 347° |
| 2026-04-26 17:05 | 34.46541 | -118.68213 | 19172 ft | 382 kts | 347° |
| 2026-04-26 17:05 | 34.49152 | -118.68711 | 19658 ft | 386 kts | 347° |
| 2026-04-26 17:05 | 34.51824 | -118.69219 | 20132 ft | 389 kts | 347° |
| 2026-04-26 17:05 | 34.54509 | -118.69734 | 20596 ft | 393 kts | 347° |
| 2026-04-26 17:06 | 34.57219 | -118.70258 | 21084 ft | 396 kts | 347° |
| 2026-04-26 17:06 | 34.59954 | -118.70791 | 21565 ft | 399 kts | 347° |
| 2026-04-26 17:06 | 34.62708 | -118.71327 | 22062 ft | 403 kts | 347° |
| 2026-04-26 17:06 | 34.65491 | -118.71873 | 22522 ft | 406 kts | 347° |
| 2026-04-26 17:07 | 34.68291 | -118.72423 | 23014 ft | 409 kts | 347° |
| 2026-04-26 17:07 | 34.71087 | -118.73097 | 23476 ft | 409 kts | 340° |
| 2026-04-26 17:07 | 34.73750 | -118.74288 | 23875 ft | 407 kts | 330° |
| 2026-04-26 17:07 | 34.76199 | -118.75910 | 24275 ft | 407 kts | 327° |
| 2026-04-26 17:08 | 34.78663 | -118.77628 | 24669 ft | 409 kts | 326° |
| 2026-04-26 17:08 | 34.81140 | -118.79364 | 25047 ft | 411 kts | 326° |
| 2026-04-26 17:08 | 34.83625 | -118.81100 | 25432 ft | 414 kts | 326° |
| 2026-04-26 17:08 | 34.86138 | -118.82846 | 25804 ft | 416 kts | 326° |
| 2026-04-26 17:09 | 34.88662 | -118.84592 | 26182 ft | 418 kts | 326° |
| 2026-04-26 17:09 | 34.89519 | -118.85183 | 26320 ft | 419 kts | 326° |
| 2026-04-26 17:09 | 34.93754 | -118.88101 | 26942 ft | 423 kts | 326° |
| 2026-04-26 17:09 | 34.96322 | -118.89871 | 27279 ft | 426 kts | 326° |
| 2026-04-26 17:10 | 34.98910 | -118.91654 | 27620 ft | 428 kts | 326° |
| 2026-04-26 17:10 | 35.01511 | -118.93449 | 27927 ft | 432 kts | 327° |
| 2026-04-26 17:10 | 35.04138 | -118.95261 | 28203 ft | 435 kts | 327° |
| 2026-04-26 17:10 | 35.06777 | -118.97084 | 28583 ft | 436 kts | 327° |
| 2026-04-26 17:11 | 35.09418 | -118.98909 | 28975 ft | 437 kts | 327° |
| 2026-04-26 17:11 | 35.12073 | -119.00744 | 29281 ft | 440 kts | 327° |
| 2026-04-26 17:11 | 35.13848 | -119.01973 | 29472 ft | 442 kts | 327° |
| 2026-04-26 17:11 | 35.17389 | -119.04425 | 30003 ft | 441 kts | 326° |
| 2026-04-26 17:12 | 35.22721 | -119.08123 | 30722 ft | 441 kts | 327° |
| 2026-04-26 17:12 | 35.25390 | -119.09976 | 31018 ft | 442 kts | 327° |
| 2026-04-26 17:13 | 35.29861 | -119.13083 | 31663 ft | 439 kts | 326° |
| 2026-04-26 17:13 | 35.32479 | -119.14905 | 32013 ft | 438 kts | 326° |
| 2026-04-26 17:13 | 35.37771 | -119.18592 | 32644 ft | 437 kts | 326° |
| 2026-04-26 17:14 | 35.40413 | -119.20435 | 32991 ft | 436 kts | 326° |
| 2026-04-26 17:14 | 35.46014 | -119.23384 | 33603 ft | 445 kts | 341° |
| 2026-04-26 17:14 | 35.49069 | -119.24068 | 33886 ft | 450 kts | 349° |
| 2026-04-26 17:15 | 35.55337 | -119.24668 | 34339 ft | 452 kts | 351° |
| 2026-04-26 17:15 | 35.58489 | -119.24933 | 34542 ft | 453 kts | 351° |
| 2026-04-26 17:15 | 35.61622 | -119.25209 | 34844 ft | 451 kts | 351° |
| 2026-04-26 17:16 | 35.64749 | -119.25487 | 35088 ft | 450 kts | 351° |
| 2026-04-26 17:16 | 35.67876 | -119.25775 | 35228 ft | 452 kts | 351° |
| 2026-04-26 17:16 | 35.71021 | -119.26074 | 35369 ft | 453 kts | 350° |
| 2026-04-26 17:16 | 35.74160 | -119.26379 | 35569 ft | 453 kts | 350° |
| 2026-04-26 17:17 | 35.77309 | -119.26687 | 35769 ft | 453 kts | 350° |
| 2026-04-26 17:17 | 35.80413 | -119.26993 | 35947 ft | 453 kts | 350° |
| 2026-04-26 17:17 | 35.83554 | -119.27304 | 35987 ft | 452 kts | 350° |
| 2026-04-26 17:18 | 35.89837 | -119.27925 | 35994 ft | 453 kts | 350° |
| 2026-04-26 17:18 | 35.96116 | -119.28547 | 36006 ft | 453 kts | 350° |
| 2026-04-26 17:19 | 36.05577 | -119.29485 | 36006 ft | 455 kts | 351° |
| 2026-04-26 17:19 | 36.11889 | -119.30111 | 36001 ft | 455 kts | 351° |
| 2026-04-26 17:20 | 36.17129 | -119.30632 | 36001 ft | 454 kts | 351° |
| 2026-04-26 17:20 | 36.24455 | -119.31361 | 36019 ft | 454 kts | 351° |
| 2026-04-26 17:21 | 36.30750 | -119.31989 | 36006 ft | 453 kts | 351° |
| 2026-04-26 17:21 | 36.37035 | -119.32616 | 36009 ft | 452 kts | 351° |
| 2026-04-26 17:22 | 36.43315 | -119.33245 | 36038 ft | 452 kts | 351° |
| 2026-04-26 17:22 | 36.49554 | -119.33871 | 36008 ft | 452 kts | 351° |
| 2026-04-26 17:23 | 36.55830 | -119.34501 | 35986 ft | 452 kts | 351° |
| 2026-04-26 17:23 | 36.62091 | -119.35130 | 35976 ft | 450 kts | 350° |
| 2026-04-26 17:24 | 36.68338 | -119.35759 | 35994 ft | 450 kts | 350° |
| 2026-04-26 17:24 | 36.74569 | -119.36387 | 35979 ft | 449 kts | 350° |
| 2026-04-26 17:25 | 36.80764 | -119.37014 | 35990 ft | 449 kts | 350° |
| 2026-04-26 17:25 | 36.87002 | -119.37646 | 35981 ft | 450 kts | 350° |
| 2026-04-26 17:26 | 36.93241 | -119.38279 | 35964 ft | 450 kts | 350° |
| 2026-04-26 17:26 | 36.99500 | -119.38914 | 35970 ft | 451 kts | 350° |
| 2026-04-26 17:27 | 37.05763 | -119.39551 | 35981 ft | 452 kts | 350° |
| 2026-04-26 17:27 | 37.12036 | -119.40191 | 35971 ft | 452 kts | 350° |
| 2026-04-26 17:28 | 37.18281 | -119.40828 | 35969 ft | 453 kts | 350° |
| 2026-04-26 17:28 | 37.24579 | -119.41472 | 35945 ft | 455 kts | 350° |
| 2026-04-26 17:29 | 37.29865 | -119.42013 | 35962 ft | 454 kts | 350° |
| 2026-04-26 17:29 | 37.37202 | -119.42765 | 35942 ft | 454 kts | 350° |
| 2026-04-26 17:30 | 37.43489 | -119.43411 | 35943 ft | 452 kts | 350° |
| 2026-04-26 17:30 | 37.49758 | -119.44056 | 35936 ft | 452 kts | 350° |
| 2026-04-26 17:31 | 37.56021 | -119.44701 | 35921 ft | 451 kts | 350° |
| 2026-04-26 17:31 | 37.62245 | -119.45344 | 35899 ft | 451 kts | 350° |
| 2026-04-26 17:32 | 37.68495 | -119.45990 | 35915 ft | 450 kts | 350° |
| 2026-04-26 17:32 | 37.74745 | -119.46638 | 35880 ft | 451 kts | 350° |
| 2026-04-26 17:33 | 37.80997 | -119.47288 | 35866 ft | 450 kts | 350° |
| 2026-04-26 17:34 | 37.90362 | -119.48260 | 35890 ft | 450 kts | 350° |
| 2026-04-26 17:34 | 37.96604 | -119.48905 | 35879 ft | 450 kts | 350° |
| 2026-04-26 17:35 | 38.02856 | -119.49562 | 35870 ft | 451 kts | 350° |
| 2026-04-26 17:35 | 38.09117 | -119.50218 | 35860 ft | 452 kts | 350° |
| 2026-04-26 17:36 | 38.15396 | -119.50880 | 35848 ft | 452 kts | 350° |
| 2026-04-26 17:36 | 38.21641 | -119.51536 | 35832 ft | 453 kts | 350° |
| 2026-04-26 17:37 | 38.27934 | -119.52195 | 35827 ft | 454 kts | 350° |
| 2026-04-26 17:37 | 38.34252 | -119.52860 | 35797 ft | 455 kts | 351° |
| 2026-04-26 17:38 | 38.43707 | -119.53859 | 35761 ft | 453 kts | 351° |
| 2026-04-26 17:38 | 38.49971 | -119.54514 | 35797 ft | 450 kts | 350° |
| 2026-04-26 17:39 | 38.56189 | -119.55181 | 35789 ft | 448 kts | 350° |
| 2026-04-26 17:39 | 38.62375 | -119.55837 | 35765 ft | 448 kts | 350° |
| 2026-04-26 17:40 | 38.67570 | -119.56396 | 35770 ft | 447 kts | 351° |
| 2026-04-26 17:40 | 38.74756 | -119.57146 | 35795 ft | 445 kts | 351° |
| 2026-04-26 17:41 | 38.80942 | -119.57807 | 35812 ft | 446 kts | 351° |
| 2026-04-26 17:41 | 38.87146 | -119.58476 | 35828 ft | 448 kts | 351° |
| 2026-04-26 17:42 | 38.93366 | -119.59144 | 35854 ft | 449 kts | 351° |
| 2026-04-26 17:42 | 38.99582 | -119.59811 | 35860 ft | 451 kts | 351° |
| 2026-04-26 17:43 | 39.05844 | -119.60483 | 35877 ft | 452 kts | 351° |
| 2026-04-26 17:43 | 39.12123 | -119.61159 | 35881 ft | 453 kts | 351° |
| 2026-04-26 17:44 | 39.18412 | -119.61837 | 35889 ft | 453 kts | 351° |
| 2026-04-26 17:44 | 39.24708 | -119.62517 | 35876 ft | 453 kts | 351° |
| 2026-04-26 17:45 | 39.30987 | -119.63195 | 35856 ft | 452 kts | 351° |
| 2026-04-26 17:45 | 39.37250 | -119.63875 | 35841 ft | 451 kts | 351° |
| 2026-04-26 17:46 | 39.43458 | -119.64550 | 35858 ft | 449 kts | 351° |
| 2026-04-26 17:46 | 39.49681 | -119.65227 | 35879 ft | 449 kts | 351° |
| 2026-04-26 17:47 | 39.53840 | -119.65729 | 35867 ft | 447 kts | 347° |
| 2026-04-26 17:47 | 39.61890 | -119.67892 | 35857 ft | 442 kts | 343° |
| 2026-04-26 17:48 | 39.67900 | -119.69653 | 35879 ft | 443 kts | 343° |
| 2026-04-26 17:48 | 39.73941 | -119.71349 | 35860 ft | 444 kts | 344° |
| 2026-04-26 17:49 | 39.79980 | -119.73017 | 35859 ft | 444 kts | 344° |
| 2026-04-26 17:49 | 39.86024 | -119.74689 | 35857 ft | 444 kts | 344° |
| 2026-04-26 17:50 | 39.92032 | -119.76357 | 35838 ft | 444 kts | 344° |
| 2026-04-26 17:50 | 39.98088 | -119.78037 | 35814 ft | 445 kts | 344° |
| 2026-04-26 17:51 | 40.04157 | -119.79724 | 35800 ft | 446 kts | 344° |
| 2026-04-26 17:51 | 40.10222 | -119.81412 | 35811 ft | 446 kts | 344° |
| 2026-04-26 17:52 | 40.16300 | -119.83109 | 35800 ft | 446 kts | 344° |
| 2026-04-26 17:52 | 40.22376 | -119.84807 | 35806 ft | 446 kts | 344° |
| 2026-04-26 17:53 | 40.28442 | -119.86505 | 35813 ft | 445 kts | 344° |
| 2026-04-26 17:54 | 40.37520 | -119.89054 | 35824 ft | 444 kts | 344° |
| 2026-04-26 17:54 | 40.43530 | -119.90745 | 35828 ft | 444 kts | 344° |
| 2026-04-26 17:55 | 40.49558 | -119.92444 | 35828 ft | 443 kts | 344° |
| 2026-04-26 17:55 | 40.55575 | -119.94143 | 35861 ft | 441 kts | 345° |
| 2026-04-26 17:56 | 40.61581 | -119.95842 | 35853 ft | 441 kts | 345° |
| 2026-04-26 17:57 | 40.73632 | -119.99262 | 35847 ft | 443 kts | 345° |
| 2026-04-26 17:57 | 40.79616 | -120.00964 | 35864 ft | 443 kts | 345° |
| 2026-04-26 17:58 | 40.91703 | -120.04428 | 35860 ft | 445 kts | 345° |
| 2026-04-26 17:59 | 41.00791 | -120.07052 | 35875 ft | 445 kts | 345° |
| 2026-04-26 17:59 | 41.06815 | -120.08795 | 35861 ft | 446 kts | 345° |
| 2026-04-26 18:00 | 41.12871 | -120.10549 | 35866 ft | 445 kts | 345° |
| 2026-04-26 18:00 | 41.18935 | -120.12306 | 35872 ft | 445 kts | 345° |
| 2026-04-26 18:01 | 41.23962 | -120.13756 | 35864 ft | 444 kts | 345° |
| 2026-04-26 18:01 | 41.29996 | -120.15498 | 35866 ft | 443 kts | 345° |
| 2026-04-26 18:02 | 41.35006 | -120.16949 | 35872 ft | 443 kts | 345° |
| 2026-04-26 18:02 | 41.42045 | -120.18992 | 35872 ft | 443 kts | 345° |
| 2026-04-26 18:03 | 41.48069 | -120.20744 | 35864 ft | 443 kts | 345° |
| 2026-04-26 18:03 | 41.54091 | -120.22499 | 35858 ft | 443 kts | 345° |
| 2026-04-26 18:04 | 41.60068 | -120.24244 | 35862 ft | 443 kts | 345° |
| 2026-04-26 18:05 | 41.69111 | -120.26891 | 35863 ft | 443 kts | 345° |
| 2026-04-26 18:05 | 41.75144 | -120.28661 | 35863 ft | 444 kts | 345° |
| 2026-04-26 18:06 | 41.81179 | -120.30435 | 35852 ft | 444 kts | 345° |
| 2026-04-26 18:06 | 41.87171 | -120.32199 | 35866 ft | 444 kts | 345° |
| 2026-04-26 18:07 | 41.93205 | -120.33979 | 35867 ft | 444 kts | 345° |
| 2026-04-26 18:07 | 41.99226 | -120.35760 | 35880 ft | 443 kts | 346° |
| 2026-04-26 18:08 | 42.05249 | -120.37544 | 35880 ft | 443 kts | 346° |
| 2026-04-26 18:08 | 42.11269 | -120.39330 | 35876 ft | 442 kts | 345° |
| 2026-04-26 18:09 | 42.17276 | -120.41117 | 35888 ft | 442 kts | 346° |
| 2026-04-26 18:09 | 42.23278 | -120.42905 | 35873 ft | 442 kts | 346° |
| 2026-04-26 18:10 | 42.29284 | -120.44698 | 35876 ft | 441 kts | 346° |
| 2026-04-26 18:10 | 42.35284 | -120.46493 | 35879 ft | 441 kts | 346° |
| 2026-04-26 18:11 | 42.41277 | -120.48289 | 35871 ft | 441 kts | 346° |
| 2026-04-26 18:11 | 42.47266 | -120.50087 | 35885 ft | 440 kts | 346° |
| 2026-04-26 18:12 | 42.53239 | -120.51954 | 35873 ft | 440 kts | 345° |
| 2026-04-26 18:12 | 42.59145 | -120.53947 | 35875 ft | 440 kts | 344° |
| 2026-04-26 18:13 | 42.65085 | -120.55966 | 35885 ft | 440 kts | 344° |
| 2026-04-26 18:13 | 42.71020 | -120.57972 | 35888 ft | 440 kts | 345° |
| 2026-04-26 18:14 | 42.76984 | -120.59982 | 35876 ft | 441 kts | 345° |
| 2026-04-26 18:14 | 42.82942 | -120.61989 | 35878 ft | 441 kts | 345° |
| 2026-04-26 18:15 | 42.88896 | -120.64000 | 35880 ft | 441 kts | 345° |
| 2026-04-26 18:15 | 42.94854 | -120.66017 | 35875 ft | 441 kts | 345° |
| 2026-04-26 18:16 | 43.00810 | -120.68037 | 35873 ft | 440 kts | 345° |
| 2026-04-26 18:16 | 43.09683 | -120.71056 | 35878 ft | 439 kts | 345° |
| 2026-04-26 18:17 | 43.15616 | -120.73077 | 35871 ft | 439 kts | 345° |
| 2026-04-26 18:17 | 43.21544 | -120.75102 | 35868 ft | 439 kts | 345° |
| 2026-04-26 18:18 | 43.27466 | -120.77129 | 35870 ft | 438 kts | 345° |
| 2026-04-26 18:18 | 43.33377 | -120.79156 | 35864 ft | 437 kts | 345° |
| 2026-04-26 18:19 | 43.39272 | -120.81182 | 35865 ft | 437 kts | 345° |
| 2026-04-26 18:19 | 43.45163 | -120.83211 | 35870 ft | 436 kts | 345° |
| 2026-04-26 18:20 | 43.51048 | -120.85241 | 35868 ft | 436 kts | 345° |
| 2026-04-26 18:20 | 43.55931 | -120.86929 | 35867 ft | 435 kts | 345° |
| 2026-04-26 18:21 | 43.62796 | -120.89307 | 35870 ft | 435 kts | 345° |
| 2026-04-26 18:21 | 43.68638 | -120.91335 | 35878 ft | 435 kts | 345° |
| 2026-04-26 18:22 | 43.74517 | -120.93379 | 35871 ft | 435 kts | 345° |
| 2026-04-26 18:22 | 43.80395 | -120.95428 | 35876 ft | 435 kts | 345° |
| 2026-04-26 18:23 | 43.86263 | -120.97478 | 35885 ft | 435 kts | 346° |
| 2026-04-26 18:23 | 43.92127 | -120.99529 | 35877 ft | 435 kts | 346° |
| 2026-04-26 18:24 | 43.97986 | -121.01584 | 35879 ft | 434 kts | 346° |
| 2026-04-26 18:24 | 44.03843 | -121.03642 | 35890 ft | 433 kts | 346° |
| 2026-04-26 18:25 | 44.09694 | -121.05703 | 35877 ft | 433 kts | 346° |
| 2026-04-26 18:25 | 44.15537 | -121.07764 | 35879 ft | 433 kts | 346° |
| 2026-04-26 18:26 | 44.21342 | -121.09816 | 35890 ft | 433 kts | 346° |
| 2026-04-26 18:26 | 44.27172 | -121.11883 | 35896 ft | 432 kts | 346° |
| 2026-04-26 18:27 | 44.32996 | -121.13952 | 35873 ft | 432 kts | 346° |
| 2026-04-26 18:27 | 44.38818 | -121.16025 | 35879 ft | 432 kts | 346° |
| 2026-04-26 18:28 | 44.44640 | -121.18102 | 35877 ft | 431 kts | 346° |
| 2026-04-26 18:28 | 44.50454 | -121.20180 | 35880 ft | 431 kts | 346° |
| 2026-04-26 18:29 | 44.56268 | -121.22263 | 35874 ft | 431 kts | 346° |
| 2026-04-26 18:29 | 44.62084 | -121.24351 | 35876 ft | 431 kts | 346° |
| 2026-04-26 18:30 | 44.67890 | -121.26440 | 35879 ft | 430 kts | 346° |
| 2026-04-26 18:30 | 44.73689 | -121.28530 | 35877 ft | 430 kts | 346° |
| 2026-04-26 18:31 | 44.79432 | -121.30675 | 35855 ft | 431 kts | 346° |
| 2026-04-26 18:31 | 44.85231 | -121.32758 | 35878 ft | 429 kts | 346° |
| 2026-04-26 18:32 | 44.91010 | -121.34817 | 35880 ft | 427 kts | 346° |
| 2026-04-26 18:32 | 44.96764 | -121.36893 | 35879 ft | 426 kts | 346° |
| 2026-04-26 18:33 | 45.02507 | -121.38983 | 35877 ft | 425 kts | 346° |
| 2026-04-26 18:33 | 45.08235 | -121.41074 | 35879 ft | 424 kts | 346° |
| 2026-04-26 18:34 | 45.13917 | -121.43151 | 35878 ft | 424 kts | 346° |
| 2026-04-26 18:34 | 45.19625 | -121.45243 | 35875 ft | 424 kts | 346° |
| 2026-04-26 18:35 | 45.25332 | -121.47341 | 35866 ft | 423 kts | 346° |
| 2026-04-26 18:35 | 45.31029 | -121.49436 | 35879 ft | 423 kts | 346° |
| 2026-04-26 18:36 | 45.36720 | -121.51535 | 35877 ft | 423 kts | 346° |
| 2026-04-26 18:36 | 45.42417 | -121.53640 | 35869 ft | 423 kts | 347° |
| 2026-04-26 18:37 | 45.48105 | -121.55748 | 35874 ft | 422 kts | 346° |
| 2026-04-26 18:37 | 45.53792 | -121.57857 | 35872 ft | 422 kts | 346° |
| 2026-04-26 18:38 | 45.59475 | -121.59970 | 35881 ft | 422 kts | 346° |
| 2026-04-26 18:38 | 45.65159 | -121.62089 | 35867 ft | 422 kts | 347° |
| 2026-04-26 18:39 | 45.70833 | -121.64207 | 35868 ft | 421 kts | 346° |
| 2026-04-26 18:39 | 45.76487 | -121.66310 | 35865 ft | 420 kts | 347° |
| 2026-04-26 18:40 | 45.82155 | -121.68442 | 35863 ft | 420 kts | 346° |
| 2026-04-26 18:40 | 45.87798 | -121.70578 | 35860 ft | 419 kts | 347° |
| 2026-04-26 18:41 | 45.93397 | -121.72684 | 35857 ft | 418 kts | 347° |
| 2026-04-26 18:41 | 45.99023 | -121.74802 | 35865 ft | 418 kts | 347° |
| 2026-04-26 18:42 | 46.04646 | -121.76927 | 35860 ft | 418 kts | 347° |
| 2026-04-26 18:42 | 46.10271 | -121.79059 | 35859 ft | 417 kts | 347° |
| 2026-04-26 18:43 | 46.15889 | -121.81192 | 35858 ft | 417 kts | 347° |
| 2026-04-26 18:43 | 46.21509 | -121.83331 | 35854 ft | 417 kts | 347° |
| 2026-04-26 18:44 | 46.27117 | -121.85467 | 35871 ft | 416 kts | 347° |
| 2026-04-26 18:44 | 46.32723 | -121.87610 | 35861 ft | 417 kts | 347° |
| 2026-04-26 18:45 | 46.38290 | -121.89750 | 35864 ft | 416 kts | 347° |
| 2026-04-26 18:45 | 46.43894 | -121.91850 | 35838 ft | 415 kts | 348° |
| 2026-04-26 18:46 | 46.49468 | -121.93980 | 35863 ft | 415 kts | 346° |
| 2026-04-26 18:46 | 46.55056 | -121.96192 | 35869 ft | 415 kts | 347° |
| 2026-04-26 18:47 | 46.60621 | -121.98345 | 35850 ft | 414 kts | 347° |
| 2026-04-26 18:47 | 46.66186 | -122.00491 | 35871 ft | 413 kts | 347° |
| 2026-04-26 18:48 | 46.68263 | -122.01300 | 35871 ft | 413 kts | 347° |
| 2026-04-26 19:01 | 46.68310 | -122.01318 | 35864 ft | 413 kts | 347° |
| 2026-04-26 19:01 | 46.73922 | -122.03498 | 35866 ft | 414 kts | 347° |
| 2026-04-26 19:02 | 46.79485 | -122.05668 | 35882 ft | 414 kts | 347° |
| 2026-04-26 19:02 | 46.84106 | -122.07473 | 35887 ft | 412 kts | 347° |
| 2026-04-26 19:03 | 46.87797 | -122.08917 | 35474 ft | 408 kts | 347° |
| 2026-04-26 19:03 | 46.90519 | -122.09993 | 35027 ft | 403 kts | 347° |
| 2026-04-26 19:03 | 46.93201 | -122.11037 | 34669 ft | 395 kts | 348° |
| 2026-04-26 19:03 | 46.95822 | -122.12066 | 34463 ft | 385 kts | 348° |
| 2026-04-26 19:04 | 46.98385 | -122.13080 | 34146 ft | 378 kts | 348° |
| 2026-04-26 19:04 | 47.00911 | -122.14076 | 33679 ft | 374 kts | 348° |
| 2026-04-26 19:04 | 47.03411 | -122.15060 | 33222 ft | 370 kts | 348° |
| 2026-04-26 19:04 | 47.05881 | -122.16034 | 32759 ft | 366 kts | 348° |
| 2026-04-26 19:05 | 47.10714 | -122.17943 | 31878 ft | 357 kts | 349° |
| 2026-04-26 19:05 | 47.13096 | -122.18887 | 31443 ft | 353 kts | 349° |
| 2026-04-26 19:05 | 47.15458 | -122.19822 | 31019 ft | 349 kts | 348° |
| 2026-04-26 19:06 | 47.17798 | -122.20750 | 30597 ft | 346 kts | 348° |
| 2026-04-26 19:06 | 47.20113 | -122.21669 | 30176 ft | 343 kts | 348° |
| 2026-04-26 19:06 | 47.22409 | -122.22582 | 29721 ft | 340 kts | 348° |
| 2026-04-26 19:06 | 47.24681 | -122.23485 | 29290 ft | 337 kts | 348° |
| 2026-04-26 19:07 | 47.26935 | -122.24382 | 28869 ft | 333 kts | 348° |
| 2026-04-26 19:07 | 47.29156 | -122.25267 | 28456 ft | 329 kts | 348° |
| 2026-04-26 19:07 | 47.31353 | -122.26143 | 28046 ft | 325 kts | 348° |
| 2026-04-26 19:07 | 47.33527 | -122.27011 | 27675 ft | 321 kts | 348° |
| 2026-04-26 19:08 | 47.35672 | -122.27867 | 27266 ft | 318 kts | 348° |
| 2026-04-26 19:08 | 47.37788 | -122.28713 | 26885 ft | 314 kts | 348° |
| 2026-04-26 19:08 | 47.39894 | -122.29555 | 26490 ft | 312 kts | 348° |
| 2026-04-26 19:08 | 47.41980 | -122.30392 | 26100 ft | 309 kts | 347° |
| 2026-04-26 19:09 | 47.44003 | -122.31484 | 25707 ft | 310 kts | 339° |
| 2026-04-26 19:09 | 47.45900 | -122.33024 | 25331 ft | 310 kts | 334° |
| 2026-04-26 19:09 | 47.47724 | -122.34635 | 24955 ft | 308 kts | 333° |
| 2026-04-26 19:09 | 47.49551 | -122.36269 | 24579 ft | 307 kts | 333° |
| 2026-04-26 19:10 | 47.51395 | -122.37920 | 24211 ft | 305 kts | 333° |
| 2026-04-26 19:10 | 47.53183 | -122.39517 | 23837 ft | 303 kts | 334° |
| 2026-04-26 19:10 | 47.54983 | -122.41123 | 23484 ft | 302 kts | 333° |
| 2026-04-26 19:10 | 47.56779 | -122.42723 | 23063 ft | 300 kts | 333° |
| 2026-04-26 19:11 | 47.58557 | -122.44305 | 22693 ft | 297 kts | 333° |
| 2026-04-26 19:11 | 47.60323 | -122.45878 | 22322 ft | 294 kts | 333° |
| 2026-04-26 19:11 | 47.62069 | -122.47432 | 21977 ft | 292 kts | 333° |
| 2026-04-26 19:11 | 47.63818 | -122.48988 | 21624 ft | 293 kts | 333° |
| 2026-04-26 19:12 | 47.65577 | -122.50551 | 21269 ft | 299 kts | 333° |
| 2026-04-26 19:12 | 47.67387 | -122.52160 | 20909 ft | 308 kts | 333° |
| 2026-04-26 19:12 | 47.69237 | -122.53807 | 20529 ft | 310 kts | 332° |
| 2026-04-26 19:12 | 47.71078 | -122.55451 | 20131 ft | 308 kts | 332° |
| 2026-04-26 19:13 | 47.72911 | -122.57090 | 19760 ft | 306 kts | 332° |
| 2026-04-26 19:13 | 47.74726 | -122.58713 | 19397 ft | 304 kts | 332° |
| 2026-04-26 19:13 | 47.76533 | -122.60331 | 19010 ft | 302 kts | 332° |
| 2026-04-26 19:13 | 47.78332 | -122.61942 | 18644 ft | 301 kts | 332° |
| 2026-04-26 19:14 | 47.80120 | -122.63544 | 18290 ft | 300 kts | 332° |
| 2026-04-26 19:14 | 47.81903 | -122.65142 | 17914 ft | 299 kts | 331° |
| 2026-04-26 19:14 | 47.83678 | -122.66735 | 17495 ft | 297 kts | 331° |
| 2026-04-26 19:14 | 47.84849 | -122.67787 | 17243 ft | 296 kts | 331° |
| 2026-04-26 19:15 | 47.87197 | -122.69896 | 16766 ft | 293 kts | 331° |
| 2026-04-26 19:15 | 47.88940 | -122.71464 | 16401 ft | 291 kts | 331° |
| 2026-04-26 19:15 | 47.90669 | -122.73020 | 16021 ft | 290 kts | 331° |
| 2026-04-26 19:15 | 47.92365 | -122.74549 | 15704 ft | 288 kts | 331° |
| 2026-04-26 19:16 | 47.94074 | -122.76090 | 15351 ft | 286 kts | 331° |
| 2026-04-26 19:16 | 47.95777 | -122.77627 | 15013 ft | 285 kts | 330° |
| 2026-04-26 19:16 | 47.97471 | -122.79157 | 14667 ft | 284 kts | 330° |
| 2026-04-26 19:16 | 47.99158 | -122.80681 | 14310 ft | 283 kts | 330° |
| 2026-04-26 19:17 | 48.00845 | -122.82206 | 13916 ft | 282 kts | 330° |
| 2026-04-26 19:17 | 48.02525 | -122.83726 | 13569 ft | 282 kts | 330° |
| 2026-04-26 19:17 | 48.04203 | -122.85246 | 13182 ft | 281 kts | 330° |
| 2026-04-26 19:17 | 48.05874 | -122.86760 | 12815 ft | 280 kts | 330° |
| 2026-04-26 19:18 | 48.07538 | -122.88270 | 12463 ft | 279 kts | 329° |
| 2026-04-26 19:18 | 48.09173 | -122.89755 | 12122 ft | 278 kts | 329° |
| 2026-04-26 19:18 | 48.10821 | -122.91252 | 11794 ft | 276 kts | 330° |
| 2026-04-26 19:18 | 48.12462 | -122.92744 | 11461 ft | 275 kts | 329° |
| 2026-04-26 19:19 | 48.14099 | -122.94233 | 11132 ft | 274 kts | 329° |
| 2026-04-26 19:19 | 48.15727 | -122.95716 | 10805 ft | 274 kts | 329° |
| 2026-04-26 19:19 | 48.17352 | -122.97197 | 10473 ft | 273 kts | 329° |
| 2026-04-26 19:19 | 48.18971 | -122.98673 | 10196 ft | 270 kts | 329° |
| 2026-04-26 19:20 | 48.20556 | -123.00120 | 10048 ft | 262 kts | 329° |
| 2026-04-26 19:20 | 48.21578 | -123.01054 | 9969 ft | 257 kts | 329° |
| 2026-04-26 19:20 | 48.23616 | -123.02917 | 9572 ft | 256 kts | 328° |
| 2026-04-26 19:20 | 48.25138 | -123.04309 | 9256 ft | 256 kts | 329° |
| 2026-04-26 19:21 | 48.26653 | -123.05695 | 8932 ft | 255 kts | 329° |
| 2026-04-26 19:21 | 48.28166 | -123.07081 | 8618 ft | 254 kts | 329° |
| 2026-04-26 19:21 | 48.29677 | -123.08466 | 8312 ft | 254 kts | 329° |
| 2026-04-26 19:21 | 48.31183 | -123.09848 | 8004 ft | 253 kts | 329° |
| 2026-04-26 19:22 | 48.32688 | -123.11233 | 7594 ft | 257 kts | 329° |
| 2026-04-26 19:22 | 48.34224 | -123.12659 | 7214 ft | 259 kts | 329° |
| 2026-04-26 19:22 | 48.35756 | -123.14085 | 6882 ft | 260 kts | 329° |
| 2026-04-26 19:22 | 48.37306 | -123.15476 | 6558 ft | 259 kts | 336° |
| 2026-04-26 19:23 | 48.39048 | -123.16011 | 6257 ft | 256 kts | 358° |
| 2026-04-26 19:23 | 48.40830 | -123.16086 | 5935 ft | 256 kts | 358° |
| 2026-04-26 19:23 | 48.42606 | -123.16169 | 5615 ft | 255 kts | 358° |
| 2026-04-26 19:23 | 48.44355 | -123.16255 | 5308 ft | 254 kts | 358° |
| 2026-04-26 19:24 | 48.46108 | -123.16344 | 5154 ft | 247 kts | 358° |
| 2026-04-26 19:24 | 48.47797 | -123.16431 | 5039 ft | 239 kts | 358° |
| 2026-04-26 19:24 | 48.51004 | -123.16599 | 4824 ft | 222 kts | 358° |
| 2026-04-26 19:25 | 48.52551 | -123.16565 | 4495 ft | 223 kts | 3° |
| 2026-04-26 19:25 | 48.53074 | -123.16510 | 4310 ft | 225 kts | 4° |
| 2026-04-26 19:25 | 48.55603 | -123.16215 | 3780 ft | 211 kts | 4° |
| 2026-04-26 19:25 | 48.57048 | -123.16053 | 3547 ft | 207 kts | 3° |
| 2026-04-26 19:26 | 48.58486 | -123.16030 | 3329 ft | 209 kts | 347° |
| 2026-04-26 19:26 | 48.59651 | -123.17230 | 3280 ft | 209 kts | 305° |
| 2026-04-26 19:26 | 48.60290 | -123.19216 | 3074 ft | 208 kts | 294° |
| 2026-04-26 19:26 | 48.60810 | -123.21179 | 2770 ft | 193 kts | 291° |
| 2026-04-26 19:27 | 48.61203 | -123.23032 | 2527 ft | 178 kts | 288° |
| 2026-04-26 19:27 | 48.61539 | -123.24788 | 2334 ft | 170 kts | 287° |
| 2026-04-26 19:27 | 48.61851 | -123.26439 | 2081 ft | 158 kts | 287° |
| 2026-04-26 19:27 | 48.62143 | -123.27981 | 1893 ft | 155 kts | 287° |
| 2026-04-26 19:28 | 48.62440 | -123.29543 | 1674 ft | 153 kts | 287° |
| 2026-04-26 19:28 | 48.62731 | -123.31079 | 1459 ft | 151 kts | 287° |
| 2026-04-26 19:28 | 48.63021 | -123.32605 | 1261 ft | 151 kts | 287° |
| 2026-04-26 19:28 | 48.63311 | -123.34133 | 1058 ft | 151 kts | 287° |
| 2026-04-26 19:29 | 48.63602 | -123.35660 | 839 ft | 153 kts | 286° |
| 2026-04-26 19:29 | 48.63898 | -123.37215 | 639 ft | 155 kts | 286° |
| 2026-04-26 19:29 | 48.64200 | -123.38796 | 452 ft | 164 kts | 285° |
| 2026-04-26 19:29 | 48.64527 | -123.40572 | 305 ft | 176 kts | 285° |
| 2026-04-26 19:30 | 48.64860 | -123.42247 | 94 ft | 154 kts | 284° |
| 2026-04-26 19:30 | 48.65125 | -123.43636 | 57 ft | 106 kts | 285° |
| 2026-04-26 19:30 | 48.65130 | -123.43667 | 60 ft | 103 kts | 285° |